createdAt,value
2023-05-09T04:29:29.325Z,20.66
2023-05-09T05:03:33.085Z,20.49
2023-05-09T05:04:33.031Z,20.72
2023-05-09T05:05:35.990Z,20.78
2023-05-09T05:06:33.021Z,20.82
2023-05-09T05:07:34.011Z,20.85
2023-05-09T05:08:34.013Z,20.87
2023-05-09T05:09:33.007Z,20.89
2023-05-09T05:10:32.995Z,20.90
2023-05-09T05:11:33.991Z,20.91
2023-05-09T05:12:33.997Z,20.92
2023-05-09T05:13:32.962Z,20.92
2023-05-09T05:14:33.957Z,20.93
2023-05-09T05:15:32.982Z,20.93
2023-05-09T05:16:33.030Z,20.94
2023-05-09T05:17:33.977Z,20.94
2023-05-09T05:18:33.934Z,20.94
2023-05-09T05:19:34.061Z,20.93
2023-05-09T05:20:33.933Z,20.95
2023-05-09T05:21:32.922Z,20.95
2023-05-09T05:22:33.898Z,20.96
2023-05-09T05:23:33.918Z,20.97
2023-05-09T05:24:33.905Z,20.98
2023-05-09T05:25:32.888Z,21.00
2023-05-09T05:26:33.886Z,21.03
2023-05-09T05:27:33.871Z,21.06
2023-05-09T05:28:33.868Z,21.08
2023-05-09T05:29:33.849Z,21.11
2023-05-09T05:30:34.610Z,21.15
2023-05-09T05:31:33.863Z,21.17
2023-05-09T05:32:32.869Z,21.20
2023-05-09T05:33:33.820Z,21.22
2023-05-09T05:34:33.826Z,21.28
2023-05-09T05:35:32.930Z,21.31
2023-05-09T05:36:32.813Z,21.36
2023-05-09T05:37:32.818Z,21.37
2023-05-09T05:38:32.783Z,21.40
2023-05-09T05:39:33.798Z,21.45
2023-05-09T05:40:33.782Z,21.52
2023-05-09T05:41:33.773Z,21.59
2023-05-09T05:42:33.753Z,21.66
2023-05-09T05:43:33.750Z,21.72
2023-05-09T05:44:33.758Z,21.76
2023-05-09T05:45:32.794Z,21.85
2023-05-09T05:46:33.743Z,21.91
2023-05-09T05:47:33.790Z,21.93
2023-05-09T05:48:33.789Z,21.93
2023-05-09T05:49:32.826Z,21.92
2023-05-09T05:50:32.874Z,21.79
2023-05-09T05:51:33.972Z,21.64
2023-05-09T05:52:33.856Z,21.53
2023-05-09T05:53:33.873Z,21.42
2023-05-09T05:54:33.933Z,21.32
2023-05-09T05:55:32.924Z,21.27
2023-05-09T05:56:32.962Z,21.23
2023-05-09T05:57:33.001Z,21.27
2023-05-09T05:58:34.036Z,21.35
2023-05-09T05:59:34.059Z,21.46
2023-05-09T06:00:34.048Z,21.59
2023-05-09T06:01:34.075Z,21.71
2023-05-09T06:02:33.087Z,21.82
2023-05-09T06:03:33.242Z,21.94
2023-05-09T06:04:34.184Z,22.05
2023-05-09T06:05:34.214Z,22.12
2023-05-09T06:06:34.268Z,22.19
2023-05-09T06:07:33.407Z,22.25
2023-05-09T06:08:33.324Z,22.27
2023-05-09T06:09:34.370Z,22.33
2023-05-09T06:10:33.424Z,22.39
2023-05-09T06:11:33.433Z,22.45
2023-05-09T06:12:34.463Z,22.48
2023-05-09T06:13:34.496Z,22.51
2023-05-09T06:14:34.540Z,22.52
2023-05-09T06:15:33.543Z,22.55
2023-05-09T06:16:33.593Z,22.57
2023-05-09T06:17:34.612Z,22.59
2023-05-09T06:18:34.606Z,22.61
2023-05-09T06:19:33.597Z,22.63
2023-05-09T06:20:33.606Z,22.67
2023-05-09T06:21:34.595Z,22.70
2023-05-09T06:22:33.635Z,22.74
2023-05-09T06:23:34.766Z,22.77
2023-05-09T06:24:36.314Z,22.78
2023-05-09T06:25:34.696Z,22.78
2023-05-09T06:26:34.676Z,22.79
2023-05-09T06:27:33.665Z,22.80
2023-05-09T06:28:34.673Z,22.83
2023-05-09T06:29:34.748Z,22.83
2023-05-09T06:30:33.676Z,22.84
2023-05-09T06:31:34.655Z,22.83
2023-05-09T06:32:34.659Z,22.83
2023-05-09T06:33:33.625Z,22.84
2023-05-09T06:34:34.628Z,22.86
2023-05-09T06:35:34.635Z,22.89
2023-05-09T06:36:34.637Z,22.90
2023-05-09T06:37:34.601Z,22.92
2023-05-09T06:38:33.598Z,22.93
2023-05-09T06:39:34.719Z,22.94
2023-05-09T06:40:34.584Z,22.94
2023-05-09T06:41:34.580Z,22.97
2023-05-09T06:42:34.556Z,22.99
2023-05-09T06:43:33.611Z,23.01
2023-05-09T06:44:34.557Z,22.99
2023-05-09T06:45:33.663Z,23.02
2023-05-09T06:46:33.647Z,23.05
2023-05-09T06:47:34.569Z,23.09
2023-05-09T06:48:34.523Z,23.09
2023-05-09T06:49:34.512Z,23.13
2023-05-09T06:50:33.500Z,23.15
2023-05-09T06:51:34.501Z,23.13
2023-05-09T06:52:33.475Z,23.05
2023-05-09T06:53:34.484Z,23.05
2023-05-09T06:54:33.732Z,23.02
2023-05-09T06:55:34.594Z,23.00
2023-05-09T06:56:34.471Z,22.94
2023-05-09T06:57:34.452Z,22.87
2023-05-09T06:58:33.458Z,22.87
2023-05-09T06:59:34.730Z,22.91
2023-05-09T07:00:34.440Z,22.95
2023-05-09T07:01:34.486Z,22.95
2023-05-09T07:02:33.511Z,22.95
2023-05-09T07:03:34.416Z,22.96
2023-05-09T07:04:33.416Z,23.00
2023-05-09T07:05:34.550Z,23.04
2023-05-09T07:06:33.376Z,23.04
2023-05-09T07:07:34.389Z,23.04
2023-05-09T07:08:34.422Z,23.05
2023-05-09T07:09:33.364Z,23.06
2023-05-09T07:10:33.363Z,23.05
2023-05-09T07:11:34.487Z,23.05
2023-05-09T07:12:34.341Z,23.01
2023-05-09T07:13:34.395Z,23.02
2023-05-09T07:14:33.344Z,23.02
2023-05-09T07:15:42.202Z,23.01
2023-05-09T07:16:37.314Z,22.99
2023-05-09T07:17:34.358Z,22.97
2023-05-09T07:18:33.304Z,23.00
2023-05-09T07:19:33.298Z,23.00
2023-05-09T07:20:34.290Z,23.02
2023-05-09T07:21:34.295Z,23.02
2023-05-09T07:22:36.994Z,23.03
2023-05-09T07:23:33.270Z,23.04
2023-05-09T07:24:34.268Z,23.05
2023-05-09T07:25:34.250Z,23.06
2023-05-09T07:26:34.258Z,23.05
2023-05-09T07:27:33.375Z,23.05
2023-05-09T07:28:33.252Z,23.05
2023-05-09T07:29:33.236Z,23.03
2023-05-09T07:30:33.225Z,23.03
2023-05-09T07:31:37.260Z,23.03
2023-05-09T07:32:33.292Z,23.01
2023-05-09T07:33:34.205Z,23.02
2023-05-09T07:34:34.181Z,23.04
2023-05-09T07:35:34.178Z,23.07
2023-05-09T07:36:35.424Z,23.09
2023-05-09T07:37:33.183Z,23.11
2023-05-09T07:38:34.163Z,23.15
2023-05-09T07:39:33.148Z,23.17
2023-05-09T07:40:33.146Z,23.19
2023-05-09T07:41:34.129Z,23.20
2023-05-09T07:42:34.111Z,23.20
2023-05-09T07:43:33.240Z,23.21
2023-05-09T07:44:34.111Z,23.21
2023-05-09T07:45:34.124Z,23.22
2023-05-09T07:46:33.077Z,23.22
2023-05-09T07:47:34.104Z,23.21
2023-05-09T07:48:34.096Z,23.22
2023-05-09T07:49:34.270Z,23.23
2023-05-09T07:50:33.065Z,23.23
2023-05-09T07:51:34.065Z,23.21
2023-05-09T07:52:34.044Z,23.20
2023-05-09T07:53:34.033Z,23.18
2023-05-09T07:54:34.073Z,23.16
2023-05-09T07:55:34.100Z,23.11
2023-05-09T07:56:34.069Z,23.07
2023-05-09T07:57:33.097Z,23.04
2023-05-09T07:58:33.168Z,23.01
2023-05-09T07:59:34.363Z,22.96
2023-05-09T08:00:34.174Z,22.91
2023-05-09T08:01:34.213Z,22.87
2023-05-09T08:02:34.329Z,22.85
2023-05-09T08:03:34.377Z,22.86
2023-05-09T08:04:33.350Z,22.87
2023-05-09T08:05:33.337Z,22.88
2023-05-09T08:06:33.355Z,22.92
2023-05-09T08:07:33.355Z,22.94
2023-05-09T08:08:34.392Z,22.90
2023-05-09T08:09:34.403Z,22.89
2023-05-09T08:10:34.421Z,22.91
2023-05-09T08:11:34.432Z,22.94
2023-05-09T08:12:33.454Z,22.95
2023-05-09T08:13:34.463Z,22.98
2023-05-09T08:14:33.453Z,23.01
2023-05-09T08:15:33.476Z,23.03
2023-05-09T08:16:34.468Z,23.05
2023-05-09T08:17:34.482Z,23.03
2023-05-09T08:18:34.472Z,23.05
2023-05-09T08:19:34.485Z,23.10
2023-05-09T08:20:34.504Z,23.12
2023-05-09T08:21:34.483Z,23.14
2023-05-09T08:22:33.480Z,23.15
2023-05-09T08:23:33.467Z,23.18
2023-05-09T08:24:34.475Z,23.16
2023-05-09T08:25:34.492Z,23.11
2023-05-09T08:26:34.492Z,23.08
2023-05-09T08:27:33.522Z,23.09
2023-05-09T08:28:33.517Z,23.06
2023-05-09T08:29:34.555Z,22.99
2023-05-09T08:30:34.556Z,22.92
2023-05-09T08:31:33.768Z,22.85
2023-05-09T08:32:34.716Z,22.81
2023-05-09T08:33:33.654Z,22.79
2023-05-09T08:34:33.679Z,22.81
2023-05-09T08:35:34.748Z,22.81
2023-05-09T08:36:34.788Z,22.83
2023-05-09T08:37:33.804Z,22.87
2023-05-09T08:38:34.843Z,22.90
2023-05-09T08:39:33.936Z,22.93
2023-05-09T08:40:34.873Z,22.96
2023-05-09T08:41:33.909Z,22.99
2023-05-09T08:42:34.916Z,23.03
2023-05-09T08:43:34.913Z,23.06
2023-05-09T08:44:34.941Z,23.07
2023-05-09T08:45:34.241Z,23.07
2023-05-09T08:46:35.001Z,23.06
2023-05-09T08:47:34.125Z,23.07
2023-05-09T08:48:36.030Z,23.10
2023-05-09T08:49:35.012Z,23.11
2023-05-09T08:50:35.258Z,23.15
2023-05-09T08:51:35.040Z,23.18
2023-05-09T08:52:35.049Z,23.21
2023-05-09T08:53:35.049Z,23.24
2023-05-09T08:54:35.050Z,23.28
2023-05-09T08:55:35.322Z,23.30
2023-05-09T08:56:34.056Z,23.30
2023-05-09T08:57:34.067Z,23.26
2023-05-09T08:58:34.116Z,23.17
2023-05-09T08:59:35.152Z,23.08
2023-05-09T09:00:34.183Z,23.05
2023-05-09T09:01:34.290Z,23.06
2023-05-09T09:02:35.310Z,23.09
2023-05-09T09:03:35.376Z,23.12
2023-05-09T09:04:35.328Z,23.14
2023-05-09T09:06:34.327Z,23.18
2023-05-09T09:07:35.354Z,23.20
2023-05-09T09:08:35.360Z,23.21
2023-05-09T09:09:35.325Z,23.22
2023-05-09T09:10:35.322Z,23.21
2023-05-09T09:11:34.314Z,23.21
2023-05-09T09:12:35.330Z,23.23
2023-05-09T09:13:35.379Z,23.24
2023-05-09T09:14:35.332Z,23.25
2023-05-09T09:15:34.320Z,23.27
2023-05-09T09:16:35.371Z,23.28
2023-05-09T09:17:35.388Z,23.29
2023-05-09T09:18:34.345Z,23.29
2023-05-09T09:19:35.473Z,23.29
2023-05-09T09:20:34.326Z,23.31
2023-05-09T09:21:34.344Z,23.32
2023-05-09T09:22:35.387Z,23.33
2023-05-09T09:23:35.431Z,23.34
2023-05-09T09:24:35.431Z,23.35
2023-05-09T09:25:34.476Z,23.35
2023-05-09T09:26:34.455Z,23.35
2023-05-09T09:27:35.502Z,23.36
2023-05-09T09:28:34.528Z,23.35
2023-05-09T09:29:34.549Z,23.36
2023-05-09T09:30:34.587Z,23.38
2023-05-09T09:31:34.660Z,23.38
2023-05-09T09:32:34.706Z,23.39
2023-05-09T09:33:35.682Z,23.38
2023-05-09T09:34:35.739Z,23.39
2023-05-09T09:35:35.938Z,23.41
2023-05-09T09:36:35.855Z,23.41
2023-05-09T09:37:35.931Z,23.42
2023-05-09T09:38:35.988Z,23.41
2023-05-09T09:39:35.048Z,23.42
2023-05-09T09:40:36.112Z,23.41
2023-05-09T09:41:36.161Z,23.41
2023-05-09T09:42:35.238Z,23.43
2023-05-09T09:43:35.293Z,23.44
2023-05-09T09:44:35.357Z,23.45
2023-05-09T09:45:35.427Z,23.47
2023-05-09T09:46:36.555Z,23.43
2023-05-09T09:47:36.496Z,23.37
2023-05-09T09:48:35.522Z,23.35
2023-05-09T09:49:36.464Z,23.33
2023-05-09T09:50:36.770Z,23.29
2023-05-09T09:51:36.557Z,23.23
2023-05-09T09:52:36.447Z,23.20
2023-05-09T09:53:35.454Z,23.18
2023-05-09T09:54:36.469Z,23.17
2023-05-09T09:55:35.448Z,23.17
2023-05-09T09:56:36.476Z,23.16
2023-05-09T09:57:35.448Z,23.15
2023-05-09T09:58:35.433Z,23.15
2023-05-09T09:59:36.420Z,23.15
2023-05-09T10:00:36.460Z,23.15
2023-05-09T10:01:36.445Z,23.17
2023-05-09T10:02:36.454Z,23.16
2023-05-09T10:03:36.509Z,23.16
2023-05-09T10:04:36.509Z,23.16
2023-05-09T10:05:36.468Z,23.15
2023-05-09T10:06:35.465Z,23.15
2023-05-09T10:07:35.560Z,23.15
2023-05-09T10:08:35.455Z,23.14
2023-05-09T10:09:36.430Z,23.14
2023-05-09T10:10:36.514Z,23.13
2023-05-09T10:11:35.443Z,23.14
2023-05-09T10:12:36.449Z,23.12
2023-05-09T10:13:36.467Z,23.11
2023-05-09T10:14:35.756Z,23.10
2023-05-09T10:15:49.244Z,23.10
2023-05-09T10:16:43.951Z,23.09
2023-05-09T10:17:36.662Z,23.09
2023-05-09T10:18:35.678Z,23.09
2023-05-09T10:19:35.427Z,23.09
2023-05-09T10:20:35.425Z,23.09
2023-05-09T10:21:37.983Z,23.09
2023-05-09T10:22:36.591Z,23.09
2023-05-09T10:23:35.701Z,23.10
2023-05-09T10:24:36.680Z,23.09
2023-05-09T10:25:36.654Z,23.09
2023-05-09T10:26:36.638Z,23.09
2023-05-09T10:27:36.665Z,23.07
2023-05-09T10:28:36.688Z,23.06
2023-05-09T10:29:36.702Z,23.01
2023-05-09T10:30:36.741Z,22.99
2023-05-09T10:31:36.803Z,22.96
2023-05-09T10:32:35.823Z,22.94
2023-05-09T10:33:36.815Z,22.91
2023-05-09T10:34:36.859Z,22.90
2023-05-09T10:35:36.911Z,22.87
2023-05-09T10:36:36.952Z,22.84
2023-05-09T10:37:36.974Z,22.82
2023-05-09T10:38:36.994Z,22.80
2023-05-09T10:39:37.176Z,22.79
2023-05-09T10:40:37.118Z,22.77
2023-05-09T10:41:37.134Z,22.75
2023-05-09T10:42:36.258Z,22.72
2023-05-09T10:43:37.236Z,22.72
2023-05-09T10:44:37.287Z,22.71
2023-05-09T10:45:36.328Z,22.69
2023-05-09T10:46:36.832Z,22.66
2023-05-09T10:47:37.444Z,22.66
2023-05-09T10:48:36.460Z,22.67
2023-05-09T10:49:37.600Z,22.68
2023-05-09T10:50:36.580Z,22.68
2023-05-09T10:51:37.587Z,22.69
2023-05-09T10:52:37.629Z,22.69
2023-05-09T10:53:36.681Z,22.70
2023-05-09T10:54:37.719Z,22.72
2023-05-09T10:55:37.915Z,22.73
2023-05-09T10:56:37.822Z,22.74
2023-05-09T10:57:36.881Z,22.74
2023-05-09T10:58:37.931Z,22.76
2023-05-09T10:59:37.966Z,22.76
2023-05-09T11:00:38.022Z,22.77
2023-05-09T11:01:38.108Z,22.76
2023-05-09T11:02:38.149Z,22.76
2023-05-09T11:03:38.299Z,22.76
2023-05-09T11:04:38.183Z,22.77
2023-05-09T11:05:38.231Z,22.77
2023-05-09T11:06:38.297Z,22.79
2023-05-09T11:07:38.302Z,22.79
2023-05-09T11:08:37.345Z,22.80
2023-05-09T11:09:38.382Z,22.80
2023-05-09T11:10:37.380Z,22.82
2023-05-09T11:11:37.542Z,22.82
2023-05-09T11:12:38.436Z,22.80
2023-05-09T11:13:37.518Z,22.77
2023-05-09T11:14:37.519Z,22.76
2023-05-09T11:15:38.580Z,22.75
2023-05-09T11:16:37.644Z,22.74
2023-05-09T11:17:38.721Z,22.75
2023-05-09T11:18:38.662Z,22.76
2023-05-09T11:19:37.670Z,22.78
2023-05-09T11:20:37.691Z,22.78
2023-05-09T11:21:38.723Z,22.79
2023-05-09T11:22:38.795Z,22.81
2023-05-09T11:23:37.784Z,22.83
2023-05-09T11:24:37.804Z,22.84
2023-05-09T11:25:38.830Z,22.84
2023-05-09T11:26:37.884Z,22.84
2023-05-09T11:27:39.034Z,22.84
2023-05-09T11:28:38.941Z,22.84
2023-05-09T11:29:37.952Z,22.84
2023-05-09T11:30:39.004Z,22.87
2023-05-09T11:32:38.107Z,22.81
2023-05-09T11:33:39.094Z,22.81
2023-05-09T11:34:38.137Z,22.81
2023-05-09T11:35:38.158Z,22.82
2023-05-09T11:36:38.306Z,22.82
2023-05-09T11:37:39.184Z,22.83
2023-05-09T11:38:39.194Z,22.84
2023-05-09T11:39:39.227Z,22.83
2023-05-09T11:40:39.248Z,22.83
2023-05-09T11:41:38.329Z,22.83
2023-05-09T11:42:38.290Z,22.83
2023-05-09T11:43:39.422Z,22.82
2023-05-09T11:44:39.318Z,22.82
2023-05-09T11:45:39.356Z,22.82
2023-05-09T11:46:39.358Z,22.81
2023-05-09T11:47:39.400Z,22.82
2023-05-09T11:48:38.382Z,22.82
2023-05-09T11:49:38.366Z,22.82
2023-05-09T11:50:39.376Z,22.81
2023-05-09T11:51:39.385Z,22.81
2023-05-09T11:52:39.393Z,22.80
2023-05-09T11:53:38.397Z,22.80
2023-05-09T11:54:38.419Z,22.79
2023-05-09T11:55:38.430Z,22.80
2023-05-09T11:56:38.464Z,22.79
2023-05-09T11:57:38.447Z,22.79
2023-05-09T11:58:38.456Z,22.78
2023-05-09T11:59:39.593Z,22.78
2023-05-09T12:00:39.497Z,22.78
2023-05-09T12:01:39.514Z,22.77
2023-05-09T12:02:39.717Z,22.77
2023-05-09T12:03:38.608Z,22.77
2023-05-09T12:04:38.600Z,22.77
2023-05-09T12:05:38.582Z,22.78
2023-05-09T12:06:39.585Z,22.77
2023-05-09T12:07:39.607Z,22.77
2023-05-09T12:08:39.720Z,22.77
2023-05-09T12:09:40.144Z,22.77
2023-05-09T12:10:39.572Z,22.77
2023-05-09T12:11:39.588Z,22.78
2023-05-09T12:12:39.597Z,22.78
2023-05-09T12:13:39.617Z,22.79
2023-05-09T12:14:39.610Z,22.79
2023-05-09T12:15:39.817Z,22.79
2023-05-09T12:16:38.653Z,22.79
2023-05-09T12:17:39.674Z,22.78
2023-05-09T12:18:38.675Z,22.78
2023-05-09T12:19:39.679Z,22.79
2023-05-09T12:20:38.688Z,22.80
2023-05-09T12:21:38.716Z,22.80
2023-05-09T12:22:39.726Z,22.80
2023-05-09T12:23:39.751Z,22.80
2023-05-09T12:24:39.762Z,22.80
2023-05-09T12:25:38.796Z,22.82
2023-05-09T12:26:38.808Z,22.81
2023-05-09T12:27:38.815Z,22.83
2023-05-09T12:28:39.838Z,22.83
2023-05-09T12:29:38.849Z,22.85
2023-05-09T12:30:38.849Z,22.87
2023-05-09T12:31:40.075Z,22.88
2023-05-09T12:32:39.961Z,22.87
2023-05-09T12:33:38.892Z,22.88
2023-05-09T12:34:38.920Z,22.88
2023-05-09T12:35:39.932Z,22.87
2023-05-09T12:36:38.958Z,22.88
2023-05-09T12:37:39.965Z,22.88
2023-05-09T12:38:38.995Z,22.87
2023-05-09T12:39:39.976Z,22.87
2023-05-09T12:40:39.002Z,22.87
2023-05-09T12:41:46.777Z,22.86
2023-05-09T12:42:40.032Z,22.85
2023-05-09T12:43:39.988Z,22.85
2023-05-09T12:44:39.982Z,22.84
2023-05-09T12:45:38.980Z,22.84
2023-05-09T12:46:40.074Z,22.84
2023-05-09T12:47:39.195Z,22.84
2023-05-09T12:48:38.972Z,22.84
2023-05-09T12:49:38.954Z,22.84
2023-05-09T12:50:39.949Z,22.84
2023-05-09T12:51:39.950Z,22.84
2023-05-09T12:52:46.965Z,22.83
2023-05-09T12:53:39.926Z,22.83
2023-05-09T12:54:38.915Z,22.83
2023-05-09T12:55:39.905Z,22.83
2023-05-09T12:56:38.905Z,22.83
2023-05-09T12:57:38.889Z,22.82
2023-05-09T12:58:39.892Z,22.83
2023-05-09T12:59:39.883Z,22.82
2023-05-09T13:00:38.886Z,22.82
2023-05-09T13:01:39.873Z,22.81
2023-05-09T13:02:39.957Z,22.80
2023-05-09T13:03:39.984Z,22.81
2023-05-09T13:04:38.851Z,22.81
2023-05-09T13:05:38.838Z,22.80
2023-05-09T13:06:39.838Z,22.81
2023-05-09T13:07:39.824Z,22.81
2023-05-09T13:08:38.826Z,22.80
2023-05-09T13:09:38.820Z,22.80
2023-05-09T13:10:38.807Z,22.80
2023-05-09T13:11:39.820Z,22.80
2023-05-09T13:12:39.803Z,22.80
2023-05-09T13:13:39.793Z,22.80
2023-05-09T13:14:39.795Z,22.80
2023-05-09T13:15:39.761Z,22.80
2023-05-09T13:16:38.778Z,22.79
2023-05-09T13:17:38.809Z,22.78
2023-05-09T13:18:39.767Z,22.77
2023-05-09T13:19:39.866Z,22.78
2023-05-09T13:20:39.736Z,22.79
2023-05-09T13:21:38.736Z,22.79
2023-05-09T13:22:38.719Z,22.79
2023-05-09T13:23:39.705Z,22.79
2023-05-09T13:24:38.701Z,22.80
2023-05-09T13:25:39.700Z,22.80
2023-05-09T13:26:39.709Z,22.80
2023-05-09T13:27:38.686Z,22.80
2023-05-09T13:28:39.683Z,22.80
2023-05-09T13:29:38.703Z,22.80
2023-05-09T13:30:38.675Z,22.79
2023-05-09T13:31:38.657Z,22.80
2023-05-09T13:32:38.663Z,22.79
2023-05-09T13:33:39.741Z,22.79
2023-05-09T13:34:39.640Z,22.79
2023-05-09T13:35:38.750Z,22.79
2023-05-09T13:36:38.635Z,22.79
2023-05-09T13:37:39.625Z,22.78
2023-05-09T13:38:38.640Z,22.78
2023-05-09T13:39:39.595Z,22.79
2023-05-09T13:40:39.610Z,22.79
2023-05-09T13:41:38.638Z,22.79
2023-05-09T13:42:39.607Z,22.78
2023-05-09T13:43:39.579Z,22.79
2023-05-09T13:44:39.569Z,22.78
2023-05-09T13:45:38.613Z,22.78
2023-05-09T13:46:38.661Z,22.78
2023-05-09T13:47:38.979Z,22.79
2023-05-09T13:48:39.697Z,22.78
2023-05-09T13:49:39.696Z,22.78
2023-05-09T13:50:39.709Z,22.77
2023-05-09T13:51:38.839Z,22.78
2023-05-09T13:52:39.750Z,22.77
2023-05-09T13:53:39.790Z,22.78
2023-05-09T13:54:39.799Z,22.77
2023-05-09T13:55:38.833Z,22.78
2023-05-09T13:56:38.848Z,22.77
2023-05-09T13:57:39.873Z,22.78
2023-05-09T13:58:39.967Z,22.77
2023-05-09T13:59:38.919Z,22.77
2023-05-09T14:00:39.948Z,22.77
2023-05-09T14:01:38.983Z,22.76
2023-05-09T14:02:40.064Z,22.77
2023-05-09T14:03:39.092Z,22.77
2023-05-09T14:04:40.022Z,22.77
2023-05-09T14:05:39.052Z,22.76
2023-05-09T14:06:40.097Z,22.77
2023-05-09T14:07:40.242Z,22.77
2023-05-09T14:08:39.125Z,22.77
2023-05-09T14:09:39.149Z,22.77
2023-05-09T14:10:39.186Z,22.76
2023-05-09T14:11:39.185Z,22.76
2023-05-09T14:12:40.332Z,22.77
2023-05-09T14:13:40.256Z,22.75
2023-05-09T14:14:40.278Z,22.75
2023-05-09T14:15:39.385Z,22.75
2023-05-09T14:16:40.365Z,22.76
2023-05-09T14:17:40.440Z,22.76
2023-05-09T14:18:40.412Z,22.77
2023-05-09T14:19:39.442Z,22.78
2023-05-09T14:20:39.447Z,22.78
2023-05-09T14:21:40.486Z,22.78
2023-05-09T14:22:39.524Z,22.79
2023-05-09T14:23:40.638Z,22.78
2023-05-09T14:24:40.540Z,22.78
2023-05-09T14:25:39.553Z,22.79
2023-05-09T14:26:40.599Z,22.78
2023-05-09T14:27:40.591Z,22.78
2023-05-09T14:28:39.583Z,22.78
2023-05-09T14:29:41.391Z,22.79
2023-05-09T14:30:40.621Z,22.79
2023-05-09T14:31:39.676Z,22.78
2023-05-09T14:32:39.714Z,22.79
2023-05-09T14:33:40.684Z,22.79
2023-05-09T14:34:40.700Z,22.79
2023-05-09T14:35:41.760Z,22.79
2023-05-09T14:36:39.729Z,22.80
2023-05-09T14:37:40.733Z,22.80
2023-05-09T14:38:40.747Z,22.80
2023-05-09T14:39:39.942Z,22.80
2023-05-09T14:40:40.800Z,22.81
2023-05-09T14:41:39.808Z,22.82
2023-05-09T14:42:40.825Z,22.81
2023-05-09T14:43:40.826Z,22.81
2023-05-09T14:44:40.857Z,22.82
2023-05-09T14:45:39.870Z,22.82
2023-05-09T14:46:40.955Z,22.82
2023-05-09T14:47:40.968Z,22.83
2023-05-09T14:48:39.898Z,22.83
2023-05-09T14:49:39.934Z,22.83
2023-05-09T14:50:39.918Z,22.84
2023-05-09T14:51:39.943Z,22.85
2023-05-09T14:52:39.952Z,22.84
2023-05-09T14:53:40.979Z,22.85
2023-05-09T14:54:40.982Z,22.84
2023-05-09T14:55:41.093Z,22.85
2023-05-09T14:56:40.974Z,22.86
2023-05-09T14:57:40.029Z,22.86
2023-05-09T14:58:41.028Z,22.87
2023-05-09T14:59:41.018Z,22.87
2023-05-09T15:00:40.031Z,22.88
2023-05-09T15:01:40.130Z,22.89
2023-05-09T15:02:41.100Z,22.89
2023-05-09T15:03:40.146Z,22.90
2023-05-09T15:04:40.077Z,22.91
2023-05-09T15:05:41.089Z,22.91
2023-05-09T15:06:41.101Z,22.90
2023-05-09T15:07:41.110Z,22.90
2023-05-09T15:08:40.119Z,22.92
2023-05-09T15:09:41.138Z,22.92
2023-05-09T15:10:40.132Z,22.92
2023-05-09T15:12:40.201Z,22.93
2023-05-09T15:13:41.134Z,22.95
2023-05-09T15:14:41.140Z,22.96
2023-05-09T15:15:41.126Z,23.01
2023-05-09T15:16:40.199Z,23.05
2023-05-09T15:17:41.106Z,23.09
2023-05-09T15:18:41.099Z,23.17
2023-05-09T15:19:41.094Z,23.44
2023-05-09T15:20:41.091Z,23.39
2023-05-09T15:21:41.109Z,24.15
2023-05-09T15:22:41.092Z,25.13
2023-05-09T15:23:41.075Z,25.51
2023-05-09T15:24:40.085Z,26.48
2023-05-09T15:25:41.069Z,27.18
2023-05-09T15:26:41.099Z,27.68
2023-05-09T15:27:41.193Z,27.93
2023-05-09T15:28:40.074Z,27.83
2023-05-09T15:29:41.050Z,27.30
2023-05-09T15:31:59.063Z,24.97
2023-05-09T15:32:59.027Z,24.43
2023-05-09T15:34:00.018Z,24.04
2023-05-09T15:34:59.995Z,23.77
2023-05-09T15:35:58.976Z,23.59
2023-05-09T15:37:00.016Z,23.48
2023-05-09T15:38:00.003Z,23.38
2023-05-09T15:38:59.968Z,23.30
2023-05-09T15:39:59.929Z,23.24
2023-05-09T15:40:59.950Z,23.19
2023-05-09T15:41:58.921Z,23.16
2023-05-09T15:43:00.028Z,23.13
2023-05-09T15:43:59.947Z,23.10
2023-05-09T15:44:58.910Z,23.07
2023-05-09T15:45:59.978Z,23.05
2023-05-09T15:46:59.917Z,23.03
2023-05-09T15:47:58.948Z,23.01
2023-05-09T15:48:59.861Z,23.00
2023-05-09T15:49:58.880Z,22.98
2023-05-09T15:50:59.877Z,22.97
2023-05-09T15:51:59.894Z,22.96
2023-05-09T15:52:59.888Z,22.94
2023-05-09T15:53:59.874Z,22.93
2023-05-09T15:54:59.935Z,22.92
2023-05-09T15:55:59.851Z,22.91
2023-05-09T15:56:58.881Z,22.90
2023-05-09T15:57:59.849Z,22.89
2023-05-09T15:58:59.935Z,22.89
2023-05-09T15:59:59.799Z,22.89
2023-05-09T16:00:58.809Z,22.87
2023-05-09T16:01:59.903Z,22.87
2023-05-09T16:02:58.861Z,22.86
2023-05-09T16:03:58.920Z,22.86
2023-05-09T16:04:59.775Z,22.86
2023-05-09T16:05:59.759Z,22.85
2023-05-09T16:06:58.759Z,22.85
2023-05-09T16:07:58.781Z,22.85
2023-05-09T16:08:59.732Z,22.84
2023-05-09T16:09:58.753Z,22.85
2023-05-09T16:10:59.715Z,22.84
2023-05-09T16:11:59.714Z,22.84
2023-05-09T16:12:59.821Z,22.84
2023-05-09T16:13:59.832Z,22.84
2023-05-09T16:14:59.867Z,22.83
2023-05-09T16:15:59.741Z,22.82
2023-05-09T16:16:59.681Z,22.82
2023-05-09T16:17:59.674Z,22.82
2023-05-09T16:18:58.671Z,22.82
2023-05-09T16:19:59.653Z,22.81
2023-05-09T16:20:58.720Z,22.81
2023-05-09T16:21:59.643Z,22.81
2023-05-09T16:22:58.682Z,22.81
2023-05-09T16:23:59.662Z,22.80
2023-05-09T16:24:59.619Z,22.80
2023-05-09T16:25:59.592Z,22.80
2023-05-09T16:26:58.645Z,22.79
2023-05-09T16:27:59.618Z,22.79
2023-05-09T16:28:59.628Z,22.78
2023-05-09T16:29:58.606Z,22.79
2023-05-09T16:30:58.733Z,22.78
2023-05-09T16:31:58.628Z,22.78
2023-05-09T16:32:59.670Z,22.77
2023-05-09T16:33:59.598Z,22.77
2023-05-09T16:34:59.574Z,22.76
2023-05-09T16:35:59.534Z,22.76
2023-05-09T16:36:59.527Z,22.76
2023-05-09T16:37:59.528Z,22.75
2023-05-09T16:38:58.525Z,22.75
2023-05-09T16:39:59.514Z,22.75
2023-05-09T16:40:59.497Z,22.74
2023-05-09T16:41:58.502Z,22.74
2023-05-09T16:42:59.512Z,22.74
2023-05-09T16:43:59.506Z,22.73
2023-05-09T16:44:58.522Z,22.73
2023-05-09T16:45:58.587Z,22.72
2023-05-09T16:46:59.604Z,22.72
2023-05-09T16:48:01.483Z,22.72
2023-05-09T16:48:59.468Z,22.71
2023-05-09T16:49:58.443Z,22.70
2023-05-09T16:50:59.471Z,22.71
2023-05-09T16:51:58.436Z,22.70
2023-05-09T16:52:59.462Z,22.70
2023-05-09T16:53:59.438Z,22.70
2023-05-09T16:54:59.573Z,22.70
2023-05-09T16:55:58.436Z,22.69
2023-05-09T16:56:58.471Z,22.69
2023-05-09T16:57:58.403Z,22.69
2023-05-09T16:58:59.406Z,22.69
2023-05-09T16:59:59.389Z,22.68
2023-05-09T17:00:59.387Z,22.68
2023-05-09T17:01:59.362Z,22.68
2023-05-09T17:02:59.527Z,22.68
2023-05-09T17:03:59.383Z,22.68
2023-05-09T17:04:59.417Z,22.67
2023-05-09T17:05:58.370Z,22.66
2023-05-09T17:06:59.333Z,22.67
2023-05-09T17:07:59.360Z,22.66
2023-05-09T17:08:58.328Z,22.67
2023-05-09T17:09:59.492Z,22.65
2023-05-09T17:10:58.297Z,22.65
2023-05-09T17:11:58.293Z,22.65
2023-05-09T17:12:59.429Z,22.65
2023-05-09T17:13:59.344Z,22.65
2023-05-09T17:14:59.334Z,22.65
2023-05-09T17:15:59.397Z,22.64
2023-05-09T17:16:59.444Z,22.63
2023-05-09T17:17:59.379Z,22.64
2023-05-09T17:18:58.430Z,22.64
2023-05-09T17:19:59.233Z,22.63
2023-05-09T17:20:59.260Z,22.64
2023-05-09T17:21:58.229Z,22.63
2023-05-09T17:22:58.241Z,22.63
2023-05-09T17:23:59.277Z,22.63
2023-05-09T17:24:59.248Z,22.62
2023-05-09T17:25:59.209Z,22.62
2023-05-09T17:26:59.198Z,22.61
2023-05-09T17:27:59.182Z,22.61
2023-05-09T17:28:59.194Z,22.61
2023-05-09T17:29:58.206Z,22.61
2023-05-09T17:30:59.155Z,22.61
2023-05-09T17:31:58.216Z,22.60
2023-05-09T17:32:59.194Z,22.60
2023-05-09T17:33:59.173Z,22.60
2023-05-09T17:34:58.255Z,22.59
2023-05-09T17:35:58.132Z,22.60
2023-05-09T17:36:58.139Z,22.60
2023-05-09T17:37:58.153Z,22.59
2023-05-09T17:38:58.224Z,22.58
2023-05-09T17:39:59.211Z,22.59
2023-05-09T17:40:58.268Z,22.59
2023-05-09T17:41:59.328Z,22.59
2023-05-09T17:42:58.312Z,22.58
2023-05-09T17:43:58.323Z,22.57
2023-05-09T17:44:59.339Z,22.58
2023-05-09T17:45:59.440Z,22.57
2023-05-09T17:46:58.403Z,22.56
2023-05-09T17:47:59.478Z,22.57
2023-05-09T17:48:58.458Z,22.56
2023-05-09T17:49:59.500Z,22.56
2023-05-09T17:50:59.633Z,22.56
2023-05-09T17:51:58.550Z,22.55
2023-05-09T17:52:59.589Z,22.55
2023-05-09T17:53:58.640Z,22.55
2023-05-09T17:54:59.664Z,22.55
2023-05-09T17:55:58.686Z,22.55
2023-05-09T17:56:59.704Z,22.53
2023-05-09T17:57:59.778Z,22.54
2023-05-09T17:58:59.771Z,22.54